sensor_id;sensor_type;location;lat;lon;timestamp;temperature;humidity
53152;DHT22;39234;53.158;6.322;2022-07-11T00:02:05;14.90;99.90
53152;DHT22;39234;53.158;6.322;2022-07-11T00:04:33;15.40;99.90
53152;DHT22;39234;53.158;6.322;2022-07-11T00:07:01;15.70;99.90
53152;DHT22;39234;53.158;6.322;2022-07-11T00:09:27;15.00;99.90
53152;DHT22;39234;53.158;6.322;2022-07-11T00:11:54;15.10;99.90
53152;DHT22;39234;53.158;6.322;2022-07-11T00:14:21;17.00;99.90
53152;DHT22;39234;53.158;6.322;2022-07-11T00:16:50;15.60;99.90
53152;DHT22;39234;53.158;6.322;2022-07-11T00:19:16;15.00;99.90
53152;DHT22;39234;53.158;6.322;2022-07-11T00:21:42;14.90;99.90
53152;DHT22;39234;53.158;6.322;2022-07-11T00:24:08;14.90;99.90
53152;DHT22;39234;53.158;6.322;2022-07-11T00:26:36;15.20;99.90
53152;DHT22;39234;53.158;6.322;2022-07-11T00:29:04;15.20;99.90
53152;DHT22;39234;53.158;6.322;2022-07-11T00:31:30;15.10;99.90
53152;DHT22;39234;53.158;6.322;2022-07-11T00:33:56;16.90;99.90
53152;DHT22;39234;53.158;6.322;2022-07-11T00:36:24;14.80;99.90
53152;DHT22;39234;53.158;6.322;2022-07-11T00:38:50;15.90;99.90
53152;DHT22;39234;53.158;6.322;2022-07-11T00:41:16;14.80;99.90
53152;DHT22;39234;53.158;6.322;2022-07-11T00:43:42;14.70;99.90
53152;DHT22;39234;53.158;6.322;2022-07-11T00:46:10;14.70;99.90
53152;DHT22;39234;53.158;6.322;2022-07-11T00:52:17;14.70;99.90
53152;DHT22;39234;53.158;6.322;2022-07-11T00:54:43;14.80;99.90
53152;DHT22;39234;53.158;6.322;2022-07-11T00:57:10;16.90;99.90
53152;DHT22;39234;53.158;6.322;2022-07-11T00:59:38;15.70;99.90
53152;DHT22;39234;53.158;6.322;2022-07-11T01:02:05;14.80;99.90
53152;DHT22;39234;53.158;6.322;2022-07-11T01:04:32;14.80;99.90
53152;DHT22;39234;53.158;6.322;2022-07-11T01:06:58;16.60;99.90
53152;DHT22;39234;53.158;6.322;2022-07-11T01:09:24;14.80;99.90
53152;DHT22;39234;53.158;6.322;2022-07-11T01:11:50;14.60;99.90
53152;DHT22;39234;53.158;6.322;2022-07-11T01:14:15;14.80;99.90
53152;DHT22;39234;53.158;6.322;2022-07-11T01:16:41;14.70;99.90
53152;DHT22;39234;53.158;6.322;2022-07-11T01:19:07;14.90;99.90
53152;DHT22;39234;53.158;6.322;2022-07-11T01:21:36;14.90;99.90
53152;DHT22;39234;53.158;6.322;2022-07-11T01:24:08;16.70;99.90
53152;DHT22;39234;53.158;6.322;2022-07-11T01:26:34;15.10;99.90
53152;DHT22;39234;53.158;6.322;2022-07-11T01:29:11;14.80;99.90
53152;DHT22;39234;53.158;6.322;2022-07-11T01:31:39;15.50;99.90
53152;DHT22;39234;53.158;6.322;2022-07-11T01:34:04;14.70;99.90
53152;DHT22;39234;53.158;6.322;2022-07-11T01:36:30;14.80;99.90
53152;DHT22;39234;53.158;6.322;2022-07-11T01:38:56;15.70;99.90
53152;DHT22;39234;53.158;6.322;2022-07-11T01:41:22;14.70;99.90
53152;DHT22;39234;53.158;6.322;2022-07-11T01:43:49;16.50;99.90
53152;DHT22;39234;53.158;6.322;2022-07-11T01:46:15;14.60;99.90
53152;DHT22;39234;53.158;6.322;2022-07-11T01:48:42;14.70;99.90
53152;DHT22;39234;53.158;6.322;2022-07-11T01:51:07;14.70;99.90
53152;DHT22;39234;53.158;6.322;2022-07-11T01:53:33;14.80;99.90
53152;DHT22;39234;53.158;6.322;2022-07-11T01:56:00;15.80;99.90
53152;DHT22;39234;53.158;6.322;2022-07-11T01:58:28;14.70;99.90
53152;DHT22;39234;53.158;6.322;2022-07-11T02:00:57;15.80;99.90
53152;DHT22;39234;53.158;6.322;2022-07-11T02:03:22;14.80;99.90
53152;DHT22;39234;53.158;6.322;2022-07-11T02:05:48;15.70;99.90
53152;DHT22;39234;53.158;6.322;2022-07-11T02:08:14;14.70;99.90
53152;DHT22;39234;53.158;6.322;2022-07-11T02:10:41;15.50;99.90
53152;DHT22;39234;53.158;6.322;2022-07-11T02:13:07;14.70;99.90
53152;DHT22;39234;53.158;6.322;2022-07-11T02:15:35;15.00;99.90
53152;DHT22;39234;53.158;6.322;2022-07-11T02:18:01;15.10;99.90
53152;DHT22;39234;53.158;6.322;2022-07-11T02:20:28;14.80;99.90
53152;DHT22;39234;53.158;6.322;2022-07-11T02:22:56;14.90;99.90
53152;DHT22;39234;53.158;6.322;2022-07-11T02:25:23;14.80;99.90
53152;DHT22;39234;53.158;6.322;2022-07-11T02:27:49;14.80;99.90
53152;DHT22;39234;53.158;6.322;2022-07-11T02:30:15;15.90;99.90
53152;DHT22;39234;53.158;6.322;2022-07-11T02:32:41;14.90;99.90
53152;DHT22;39234;53.158;6.322;2022-07-11T02:35:09;16.70;99.90
53152;DHT22;39234;53.158;6.322;2022-07-11T02:37:35;15.30;99.90
53152;DHT22;39234;53.158;6.322;2022-07-11T02:40:03;14.90;99.90
53152;DHT22;39234;53.158;6.322;2022-07-11T02:42:29;13.50;99.90
53152;DHT22;39234;53.158;6.322;2022-07-11T02:44:54;15.00;99.90
53152;DHT22;39234;53.158;6.322;2022-07-11T02:47:21;14.70;99.90
53152;DHT22;39234;53.158;6.322;2022-07-11T02:49:47;16.80;99.90
53152;DHT22;39234;53.158;6.322;2022-07-11T02:52:14;14.80;99.90
53152;DHT22;39234;53.158;6.322;2022-07-11T02:54:39;15.30;99.90
53152;DHT22;39234;53.158;6.322;2022-07-11T02:57:05;16.30;99.90
53152;DHT22;39234;53.158;6.322;2022-07-11T02:59:31;14.90;99.90
53152;DHT22;39234;53.158;6.322;2022-07-11T03:01:57;14.70;99.90
53152;DHT22;39234;53.158;6.322;2022-07-11T03:04:22;15.50;99.90
53152;DHT22;39234;53.158;6.322;2022-07-11T03:06:48;15.50;99.90
53152;DHT22;39234;53.158;6.322;2022-07-11T03:09:14;16.60;99.90
53152;DHT22;39234;53.158;6.322;2022-07-11T03:11:39;14.70;99.90
53152;DHT22;39234;53.158;6.322;2022-07-11T03:14:05;14.60;99.90
53152;DHT22;39234;53.158;6.322;2022-07-11T03:16:31;14.80;99.90
53152;DHT22;39234;53.158;6.322;2022-07-11T03:18:57;15.00;99.90
53152;DHT22;39234;53.158;6.322;2022-07-11T03:21:23;15.00;99.90
53152;DHT22;39234;53.158;6.322;2022-07-11T03:23:51;14.70;99.90
53152;DHT22;39234;53.158;6.322;2022-07-11T03:26:19;17.00;99.90
53152;DHT22;39234;53.158;6.322;2022-07-11T03:28:45;14.80;99.90
53152;DHT22;39234;53.158;6.322;2022-07-11T03:31:10;15.30;99.90
53152;DHT22;39234;53.158;6.322;2022-07-11T03:33:36;15.20;99.90
53152;DHT22;39234;53.158;6.322;2022-07-11T03:36:02;14.90;99.90
53152;DHT22;39234;53.158;6.322;2022-07-11T03:38:28;14.70;99.90
53152;DHT22;39234;53.158;6.322;2022-07-11T03:40:54;14.60;99.90
53152;DHT22;39234;53.158;6.322;2022-07-11T03:43:22;14.80;99.90
53152;DHT22;39234;53.158;6.322;2022-07-11T03:45:50;15.20;99.90
53152;DHT22;39234;53.158;6.322;2022-07-11T03:48:15;15.80;99.90
53152;DHT22;39234;53.158;6.322;2022-07-11T03:50:41;16.70;99.90
53152;DHT22;39234;53.158;6.322;2022-07-11T03:53:08;14.70;99.90
53152;DHT22;39234;53.158;6.322;2022-07-11T03:55:34;14.90;99.90
53152;DHT22;39234;53.158;6.322;2022-07-11T03:58:00;14.90;99.90
53152;DHT22;39234;53.158;6.322;2022-07-11T04:00:28;15.50;99.90
53152;DHT22;39234;53.158;6.322;2022-07-11T04:02:54;14.80;99.90
53152;DHT22;39234;53.158;6.322;2022-07-11T04:05:20;14.90;99.90
53152;DHT22;39234;53.158;6.322;2022-07-11T04:07:45;17.10;99.90
53152;DHT22;39234;53.158;6.322;2022-07-11T04:10:11;14.90;99.90
53152;DHT22;39234;53.158;6.322;2022-07-11T04:12:37;14.90;99.90
53152;DHT22;39234;53.158;6.322;2022-07-11T04:15:03;14.80;99.90
53152;DHT22;39234;53.158;6.322;2022-07-11T04:17:31;14.90;99.90
53152;DHT22;39234;53.158;6.322;2022-07-11T04:19:57;15.40;99.90
53152;DHT22;39234;53.158;6.322;2022-07-11T04:22:23;15.90;99.90
53152;DHT22;39234;53.158;6.322;2022-07-11T04:24:49;15.10;99.90
53152;DHT22;39234;53.158;6.322;2022-07-11T04:27:15;15.00;99.90
53152;DHT22;39234;53.158;6.322;2022-07-11T04:29:40;15.00;99.90
53152;DHT22;39234;53.158;6.322;2022-07-11T04:32:06;14.90;99.90
53152;DHT22;39234;53.158;6.322;2022-07-11T04:34:33;14.90;99.90
53152;DHT22;39234;53.158;6.322;2022-07-11T04:36:59;14.80;99.90
53152;DHT22;39234;53.158;6.322;2022-07-11T04:39:24;14.90;99.90
53152;DHT22;39234;53.158;6.322;2022-07-11T04:41:50;15.10;99.90
53152;DHT22;39234;53.158;6.322;2022-07-11T04:44:16;14.90;99.90
53152;DHT22;39234;53.158;6.322;2022-07-11T04:46:43;16.50;99.90
53152;DHT22;39234;53.158;6.322;2022-07-11T04:49:09;14.90;99.90
53152;DHT22;39234;53.158;6.322;2022-07-11T04:51:35;15.00;99.90
53152;DHT22;39234;53.158;6.322;2022-07-11T04:54:02;14.80;99.90
53152;DHT22;39234;53.158;6.322;2022-07-11T04:56:28;15.00;99.90
53152;DHT22;39234;53.158;6.322;2022-07-11T04:58:55;15.00;99.90
53152;DHT22;39234;53.158;6.322;2022-07-11T05:01:22;14.90;99.90
53152;DHT22;39234;53.158;6.322;2022-07-11T05:03:48;17.20;99.90
53152;DHT22;39234;53.158;6.322;2022-07-11T05:06:14;15.00;99.90
53152;DHT22;39234;53.158;6.322;2022-07-11T05:08:41;15.00;99.90
53152;DHT22;39234;53.158;6.322;2022-07-11T05:11:07;15.70;99.90
53152;DHT22;39234;53.158;6.322;2022-07-11T05:13:32;15.20;99.90
53152;DHT22;39234;53.158;6.322;2022-07-11T05:15:58;16.90;99.90
53152;DHT22;39234;53.158;6.322;2022-07-11T05:18:24;15.70;99.90
53152;DHT22;39234;53.158;6.322;2022-07-11T05:20:49;15.10;99.90
53152;DHT22;39234;53.158;6.322;2022-07-11T05:23:15;15.30;99.90
53152;DHT22;39234;53.158;6.322;2022-07-11T05:25:41;15.80;99.90
53152;DHT22;39234;53.158;6.322;2022-07-11T05:28:08;15.20;99.90
53152;DHT22;39234;53.158;6.322;2022-07-11T05:30:34;16.10;99.90
53152;DHT22;39234;53.158;6.322;2022-07-11T05:33:00;15.30;99.90
53152;DHT22;39234;53.158;6.322;2022-07-11T05:35:27;17.00;99.90
53152;DHT22;39234;53.158;6.322;2022-07-11T05:37:54;15.20;99.90
53152;DHT22;39234;53.158;6.322;2022-07-11T05:40:20;17.30;99.90
53152;DHT22;39234;53.158;6.322;2022-07-11T05:42:45;15.60;99.90
53152;DHT22;39234;53.158;6.322;2022-07-11T05:45:13;15.30;99.90
53152;DHT22;39234;53.158;6.322;2022-07-11T05:47:39;15.40;99.90
53152;DHT22;39234;53.158;6.322;2022-07-11T05:50:05;15.50;99.90
53152;DHT22;39234;53.158;6.322;2022-07-11T05:52:31;15.40;99.90
53152;DHT22;39234;53.158;6.322;2022-07-11T05:54:57;15.60;99.90
53152;DHT22;39234;53.158;6.322;2022-07-11T05:57:23;15.60;99.90
53152;DHT22;39234;53.158;6.322;2022-07-11T05:59:50;15.40;99.90
53152;DHT22;39234;53.158;6.322;2022-07-11T06:02:16;15.30;99.90
53152;DHT22;39234;53.158;6.322;2022-07-11T06:04:41;15.30;99.90
53152;DHT22;39234;53.158;6.322;2022-07-11T06:07:12;15.50;99.90
53152;DHT22;39234;53.158;6.322;2022-07-11T06:09:58;15.50;99.90
53152;DHT22;39234;53.158;6.322;2022-07-11T06:12:23;16.10;99.90
53152;DHT22;39234;53.158;6.322;2022-07-11T06:14:49;15.70;99.90
53152;DHT22;39234;53.158;6.322;2022-07-11T06:17:14;15.70;99.90
53152;DHT22;39234;53.158;6.322;2022-07-11T06:19:40;15.70;99.90
53152;DHT22;39234;53.158;6.322;2022-07-11T06:22:06;15.50;99.90
53152;DHT22;39234;53.158;6.322;2022-07-11T06:24:31;17.40;99.90
53152;DHT22;39234;53.158;6.322;2022-07-11T06:26:57;15.60;99.90
53152;DHT22;39234;53.158;6.322;2022-07-11T06:29:26;15.90;99.90
53152;DHT22;39234;53.158;6.322;2022-07-11T06:31:52;15.80;99.90
53152;DHT22;39234;53.158;6.322;2022-07-11T06:34:18;15.80;99.90
53152;DHT22;39234;53.158;6.322;2022-07-11T06:36:44;15.90;99.90
53152;DHT22;39234;53.158;6.322;2022-07-11T06:39:11;17.90;99.90
53152;DHT22;39234;53.158;6.322;2022-07-11T06:41:40;17.90;99.90
53152;DHT22;39234;53.158;6.322;2022-07-11T06:44:06;15.80;99.90
53152;DHT22;39234;53.158;6.322;2022-07-11T06:46:32;16.10;99.90
53152;DHT22;39234;53.158;6.322;2022-07-11T06:48:59;15.90;99.90
53152;DHT22;39234;53.158;6.322;2022-07-11T06:51:25;17.30;99.90
53152;DHT22;39234;53.158;6.322;2022-07-11T06:53:51;16.00;99.90
53152;DHT22;39234;53.158;6.322;2022-07-11T06:56:19;15.80;99.90
53152;DHT22;39234;53.158;6.322;2022-07-11T06:58:45;16.00;99.90
53152;DHT22;39234;53.158;6.322;2022-07-11T07:01:10;15.90;99.90
53152;DHT22;39234;53.158;6.322;2022-07-11T07:03:38;16.40;99.90
53152;DHT22;39234;53.158;6.322;2022-07-11T07:06:04;16.20;99.90
53152;DHT22;39234;53.158;6.322;2022-07-11T07:08:31;16.50;99.90
53152;DHT22;39234;53.158;6.322;2022-07-11T07:10:57;15.80;99.90
53152;DHT22;39234;53.158;6.322;2022-07-11T07:13:23;16.50;99.90
53152;DHT22;39234;53.158;6.322;2022-07-11T07:15:51;16.60;99.90
53152;DHT22;39234;53.158;6.322;2022-07-11T07:18:18;16.20;99.90
53152;DHT22;39234;53.158;6.322;2022-07-11T07:20:44;16.00;99.90
53152;DHT22;39234;53.158;6.322;2022-07-11T07:23:09;16.00;99.90
53152;DHT22;39234;53.158;6.322;2022-07-11T07:25:35;16.10;99.90
53152;DHT22;39234;53.158;6.322;2022-07-11T07:28:03;18.40;99.90
53152;DHT22;39234;53.158;6.322;2022-07-11T07:30:29;16.40;99.90
53152;DHT22;39234;53.158;6.322;2022-07-11T07:32:55;17.70;99.90
53152;DHT22;39234;53.158;6.322;2022-07-11T07:35:20;17.10;99.90
53152;DHT22;39234;53.158;6.322;2022-07-11T07:37:46;16.90;99.90
53152;DHT22;39234;53.158;6.322;2022-07-11T07:40:12;17.10;99.90
53152;DHT22;39234;53.158;6.322;2022-07-11T07:42:37;19.60;99.90
53152;DHT22;39234;53.158;6.322;2022-07-11T07:45:03;18.00;99.90
53152;DHT22;39234;53.158;6.322;2022-07-11T07:47:31;17.60;99.90
53152;DHT22;39234;53.158;6.322;2022-07-11T07:49:56;17.70;99.90
53152;DHT22;39234;53.158;6.322;2022-07-11T07:52:22;17.30;99.90
53152;DHT22;39234;53.158;6.322;2022-07-11T07:54:48;17.20;99.90
53152;DHT22;39234;53.158;6.322;2022-07-11T07:57:14;17.30;99.90
53152;DHT22;39234;53.158;6.322;2022-07-11T07:59:39;18.50;99.90
53152;DHT22;39234;53.158;6.322;2022-07-11T08:02:05;19.50;99.90
53152;DHT22;39234;53.158;6.322;2022-07-11T08:04:31;20.20;99.90
53152;DHT22;39234;53.158;6.322;2022-07-11T08:06:57;20.50;99.90
53152;DHT22;39234;53.158;6.322;2022-07-11T08:09:26;20.40;99.90
53152;DHT22;39234;53.158;6.322;2022-07-11T08:11:52;19.90;99.90
53152;DHT22;39234;53.158;6.322;2022-07-11T08:14:17;19.70;99.90
53152;DHT22;39234;53.158;6.322;2022-07-11T08:16:43;19.20;99.90
53152;DHT22;39234;53.158;6.322;2022-07-11T08:19:09;18.90;99.90
53152;DHT22;39234;53.158;6.322;2022-07-11T08:21:37;20.00;99.90
53152;DHT22;39234;53.158;6.322;2022-07-11T08:24:03;18.70;99.90
53152;DHT22;39234;53.158;6.322;2022-07-11T08:26:29;19.10;99.90
53152;DHT22;39234;53.158;6.322;2022-07-11T08:28:55;20.00;99.90
53152;DHT22;39234;53.158;6.322;2022-07-11T08:31:22;21.20;99.90
53152;DHT22;39234;53.158;6.322;2022-07-11T08:33:48;19.90;99.90
53152;DHT22;39234;53.158;6.322;2022-07-11T08:36:14;19.30;99.90
53152;DHT22;39234;53.158;6.322;2022-07-11T08:38:41;21.10;99.90
53152;DHT22;39234;53.158;6.322;2022-07-11T08:41:12;21.20;99.90
53152;DHT22;39234;53.158;6.322;2022-07-11T08:43:38;18.50;99.90
53152;DHT22;39234;53.158;6.322;2022-07-11T08:46:09;18.30;99.90
53152;DHT22;39234;53.158;6.322;2022-07-11T08:48:38;20.30;99.90
53152;DHT22;39234;53.158;6.322;2022-07-11T08:51:05;18.00;99.90
53152;DHT22;39234;53.158;6.322;2022-07-11T08:53:33;20.00;99.90
53152;DHT22;39234;53.158;6.322;2022-07-11T08:56:03;17.90;99.90
53152;DHT22;39234;53.158;6.322;2022-07-11T08:58:29;18.00;99.90
53152;DHT22;39234;53.158;6.322;2022-07-11T09:00:57;19.00;99.90
53152;DHT22;39234;53.158;6.322;2022-07-11T09:03:22;19.20;99.90
53152;DHT22;39234;53.158;6.322;2022-07-11T09:05:48;18.70;99.90
53152;DHT22;39234;53.158;6.322;2022-07-11T09:08:16;18.20;99.90
53152;DHT22;39234;53.158;6.322;2022-07-11T09:10:42;18.20;99.90
53152;DHT22;39234;53.158;6.322;2022-07-11T09:13:10;18.20;99.90
53152;DHT22;39234;53.158;6.322;2022-07-11T09:15:46;18.40;99.90
53152;DHT22;39234;53.158;6.322;2022-07-11T09:18:49;18.00;99.90
53152;DHT22;39234;53.158;6.322;2022-07-11T09:21:15;17.80;99.90
53152;DHT22;39234;53.158;6.322;2022-07-11T09:24:02;17.70;99.90
53152;DHT22;39234;53.158;6.322;2022-07-11T09:26:50;17.90;99.90
53152;DHT22;39234;53.158;6.322;2022-07-11T09:29:19;18.20;99.90
53152;DHT22;39234;53.158;6.322;2022-07-11T09:31:53;18.10;99.90
53152;DHT22;39234;53.158;6.322;2022-07-11T09:34:22;18.20;99.90
53152;DHT22;39234;53.158;6.322;2022-07-11T09:36:54;20.20;99.90
53152;DHT22;39234;53.158;6.322;2022-07-11T09:39:26;18.20;99.90
53152;DHT22;39234;53.158;6.322;2022-07-11T09:41:52;18.10;99.90
53152;DHT22;39234;53.158;6.322;2022-07-11T09:44:23;18.70;99.90
53152;DHT22;39234;53.158;6.322;2022-07-11T09:46:51;18.20;99.90
53152;DHT22;39234;53.158;6.322;2022-07-11T09:49:29;18.80;99.90
53152;DHT22;39234;53.158;6.322;2022-07-11T09:51:55;17.90;99.90
53152;DHT22;39234;53.158;6.322;2022-07-11T09:54:31;18.20;99.90
53152;DHT22;39234;53.158;6.322;2022-07-11T09:56:58;18.30;99.90
53152;DHT22;39234;53.158;6.322;2022-07-11T09:59:25;18.50;99.90
53152;DHT22;39234;53.158;6.322;2022-07-11T10:01:51;18.30;99.90
53152;DHT22;39234;53.158;6.322;2022-07-11T10:04:17;18.60;99.90
53152;DHT22;39234;53.158;6.322;2022-07-11T10:06:44;18.30;99.90
53152;DHT22;39234;53.158;6.322;2022-07-11T10:09:10;18.30;99.90
53152;DHT22;39234;53.158;6.322;2022-07-11T10:11:36;18.30;99.90
53152;DHT22;39234;53.158;6.322;2022-07-11T10:14:05;19.20;99.90
53152;DHT22;39234;53.158;6.322;2022-07-11T10:16:58;17.90;99.90
53152;DHT22;39234;53.158;6.322;2022-07-11T10:28:22;18.30;99.90
53152;DHT22;39234;53.158;6.322;2022-07-11T10:30:50;18.30;99.90
53152;DHT22;39234;53.158;6.322;2022-07-11T10:33:18;18.30;99.90
53152;DHT22;39234;53.158;6.322;2022-07-11T10:35:47;18.70;99.90
53152;DHT22;39234;53.158;6.322;2022-07-11T10:38:16;18.30;99.90
53152;DHT22;39234;53.158;6.322;2022-07-11T10:46:07;18.30;99.90
53152;DHT22;39234;53.158;6.322;2022-07-11T10:48:35;19.50;99.90
53152;DHT22;39234;53.158;6.322;2022-07-11T10:53:40;18.70;99.90
53152;DHT22;39234;53.158;6.322;2022-07-11T10:56:36;18.70;99.90
53152;DHT22;39234;53.158;6.322;2022-07-11T10:59:18;18.60;99.90
53152;DHT22;39234;53.158;6.322;2022-07-11T11:04:51;18.80;99.90
53152;DHT22;39234;53.158;6.322;2022-07-11T11:07:41;19.00;99.90
53152;DHT22;39234;53.158;6.322;2022-07-11T11:15:34;19.10;99.90
53152;DHT22;39234;53.158;6.322;2022-07-11T11:23:39;18.80;99.90
53152;DHT22;39234;53.158;6.322;2022-07-11T11:26:16;18.60;99.90
53152;DHT22;39234;53.158;6.322;2022-07-11T11:28:58;18.60;99.90
53152;DHT22;39234;53.158;6.322;2022-07-11T11:31:25;18.50;99.90
53152;DHT22;39234;53.158;6.322;2022-07-11T11:33:51;19.80;99.90
53152;DHT22;39234;53.158;6.322;2022-07-11T11:36:19;18.80;99.90
53152;DHT22;39234;53.158;6.322;2022-07-11T11:38:45;19.00;99.90
53152;DHT22;39234;53.158;6.322;2022-07-11T11:41:25;19.00;99.90
53152;DHT22;39234;53.158;6.322;2022-07-11T11:43:51;18.90;99.90
53152;DHT22;39234;53.158;6.322;2022-07-11T11:46:17;18.90;99.90
53152;DHT22;39234;53.158;6.322;2022-07-11T11:48:43;19.20;99.90
53152;DHT22;39234;53.158;6.322;2022-07-11T11:51:14;19.10;99.90
53152;DHT22;39234;53.158;6.322;2022-07-11T11:53:42;19.00;99.90
53152;DHT22;39234;53.158;6.322;2022-07-11T11:56:16;19.70;99.90
53152;DHT22;39234;53.158;6.322;2022-07-11T11:58:43;19.00;99.90
53152;DHT22;39234;53.158;6.322;2022-07-11T12:01:13;19.10;99.90
53152;DHT22;39234;53.158;6.322;2022-07-11T12:03:50;19.10;99.90
53152;DHT22;39234;53.158;6.322;2022-07-11T12:06:17;19.10;99.90
53152;DHT22;39234;53.158;6.322;2022-07-11T12:08:46;18.90;99.90
53152;DHT22;39234;53.158;6.322;2022-07-11T12:11:13;19.00;99.90
53152;DHT22;39234;53.158;6.322;2022-07-11T12:13:40;19.40;99.90
53152;DHT22;39234;53.158;6.322;2022-07-11T12:16:16;19.20;99.90
53152;DHT22;39234;53.158;6.322;2022-07-11T12:19:03;19.20;99.90
53152;DHT22;39234;53.158;6.322;2022-07-11T12:21:30;19.00;99.90
53152;DHT22;39234;53.158;6.322;2022-07-11T12:24:01;18.80;99.90
53152;DHT22;39234;53.158;6.322;2022-07-11T12:26:28;21.30;99.90
53152;DHT22;39234;53.158;6.322;2022-07-11T12:29:24;19.10;99.90
53152;DHT22;39234;53.158;6.322;2022-07-11T12:31:54;19.00;99.90
53152;DHT22;39234;53.158;6.322;2022-07-11T12:34:22;19.10;99.90
53152;DHT22;39234;53.158;6.322;2022-07-11T12:36:48;19.00;99.90
53152;DHT22;39234;53.158;6.322;2022-07-11T12:39:27;18.90;99.90
53152;DHT22;39234;53.158;6.322;2022-07-11T12:41:55;18.80;99.90
53152;DHT22;39234;53.158;6.322;2022-07-11T12:44:29;18.90;99.90
53152;DHT22;39234;53.158;6.322;2022-07-11T12:47:16;19.10;99.90
53152;DHT22;39234;53.158;6.322;2022-07-11T12:49:48;18.90;99.90
53152;DHT22;39234;53.158;6.322;2022-07-11T12:52:16;18.90;99.90
53152;DHT22;39234;53.158;6.322;2022-07-11T12:54:42;19.60;99.90
53152;DHT22;39234;53.158;6.322;2022-07-11T12:57:09;21.40;99.90
53152;DHT22;39234;53.158;6.322;2022-07-11T12:59:39;19.10;99.90
53152;DHT22;39234;53.158;6.322;2022-07-11T13:02:12;19.90;99.90
53152;DHT22;39234;53.158;6.322;2022-07-11T13:04:48;20.50;99.90
53152;DHT22;39234;53.158;6.322;2022-07-11T13:07:41;19.40;99.90
53152;DHT22;39234;53.158;6.322;2022-07-11T13:10:27;19.40;99.90
53152;DHT22;39234;53.158;6.322;2022-07-11T13:13:16;20.70;99.90
53152;DHT22;39234;53.158;6.322;2022-07-11T13:15:43;19.40;99.90
53152;DHT22;39234;53.158;6.322;2022-07-11T13:18:10;19.40;99.90
53152;DHT22;39234;53.158;6.322;2022-07-11T13:20:36;19.50;99.90
53152;DHT22;39234;53.158;6.322;2022-07-11T13:23:03;19.80;99.90
53152;DHT22;39234;53.158;6.322;2022-07-11T13:25:29;20.90;99.90
53152;DHT22;39234;53.158;6.322;2022-07-11T13:27:55;19.70;99.90
53152;DHT22;39234;53.158;6.322;2022-07-11T13:30:22;19.60;99.90
53152;DHT22;39234;53.158;6.322;2022-07-11T13:32:52;19.70;99.90
53152;DHT22;39234;53.158;6.322;2022-07-11T13:35:18;19.70;99.90
53152;DHT22;39234;53.158;6.322;2022-07-11T13:37:45;20.00;99.90
53152;DHT22;39234;53.158;6.322;2022-07-11T13:40:13;20.00;99.90
53152;DHT22;39234;53.158;6.322;2022-07-11T13:42:40;19.80;99.90
53152;DHT22;39234;53.158;6.322;2022-07-11T13:45:09;20.10;99.90
53152;DHT22;39234;53.158;6.322;2022-07-11T13:47:34;19.70;99.90
53152;DHT22;39234;53.158;6.322;2022-07-11T13:50:01;19.60;99.90
53152;DHT22;39234;53.158;6.322;2022-07-11T13:52:28;19.80;99.90
53152;DHT22;39234;53.158;6.322;2022-07-11T13:54:54;20.90;99.90
53152;DHT22;39234;53.158;6.322;2022-07-11T13:57:20;19.70;99.90
53152;DHT22;39234;53.158;6.322;2022-07-11T13:59:48;21.80;99.90
53152;DHT22;39234;53.158;6.322;2022-07-11T14:02:14;19.70;99.90
53152;DHT22;39234;53.158;6.322;2022-07-11T14:04:40;22.00;99.90
53152;DHT22;39234;53.158;6.322;2022-07-11T14:07:10;19.60;99.90
53152;DHT22;39234;53.158;6.322;2022-07-11T14:09:39;19.60;99.90
53152;DHT22;39234;53.158;6.322;2022-07-11T14:12:05;20.00;99.90
53152;DHT22;39234;53.158;6.322;2022-07-11T14:14:31;19.70;99.90
53152;DHT22;39234;53.158;6.322;2022-07-11T14:16:58;19.90;99.90
53152;DHT22;39234;53.158;6.322;2022-07-11T14:19:24;20.00;99.90
53152;DHT22;39234;53.158;6.322;2022-07-11T14:21:52;19.90;99.90
53152;DHT22;39234;53.158;6.322;2022-07-11T14:24:20;19.70;99.90
53152;DHT22;39234;53.158;6.322;2022-07-11T14:26:46;22.10;99.90
53152;DHT22;39234;53.158;6.322;2022-07-11T14:29:12;19.70;99.90
53152;DHT22;39234;53.158;6.322;2022-07-11T14:31:39;20.60;99.90
53152;DHT22;39234;53.158;6.322;2022-07-11T14:34:05;21.60;99.90
53152;DHT22;39234;53.158;6.322;2022-07-11T14:36:31;19.70;99.90
53152;DHT22;39234;53.158;6.322;2022-07-11T14:38:56;19.80;99.90
53152;DHT22;39234;53.158;6.322;2022-07-11T14:41:22;19.80;99.90
53152;DHT22;39234;53.158;6.322;2022-07-11T14:43:49;20.20;99.90
53152;DHT22;39234;53.158;6.322;2022-07-11T14:46:17;20.70;99.90
53152;DHT22;39234;53.158;6.322;2022-07-11T14:48:42;20.20;99.90
53152;DHT22;39234;53.158;6.322;2022-07-11T14:51:09;20.60;99.90
53152;DHT22;39234;53.158;6.322;2022-07-11T14:53:37;20.00;99.90
53152;DHT22;39234;53.158;6.322;2022-07-11T14:56:03;20.10;99.90
53152;DHT22;39234;53.158;6.322;2022-07-11T14:58:29;19.90;99.90
53152;DHT22;39234;53.158;6.322;2022-07-11T15:00:55;19.80;99.90
53152;DHT22;39234;53.158;6.322;2022-07-11T15:03:20;19.80;99.90
53152;DHT22;39234;53.158;6.322;2022-07-11T15:06:12;19.80;99.90
53152;DHT22;39234;53.158;6.322;2022-07-11T15:08:39;19.80;99.90
53152;DHT22;39234;53.158;6.322;2022-07-11T15:11:25;19.80;99.90
53152;DHT22;39234;53.158;6.322;2022-07-11T15:14:12;19.90;99.90
53152;DHT22;39234;53.158;6.322;2022-07-11T15:16:39;18.40;99.90
53152;DHT22;39234;53.158;6.322;2022-07-11T15:19:06;19.90;99.90
53152;DHT22;39234;53.158;6.322;2022-07-11T15:21:32;20.80;99.90
53152;DHT22;39234;53.158;6.322;2022-07-11T15:23:59;22.40;99.90
53152;DHT22;39234;53.158;6.322;2022-07-11T15:26:25;21.70;99.90
53152;DHT22;39234;53.158;6.322;2022-07-11T15:28:51;20.20;99.90
53152;DHT22;39234;53.158;6.322;2022-07-11T15:31:19;20.30;99.90
53152;DHT22;39234;53.158;6.322;2022-07-11T15:33:45;20.60;99.90
53152;DHT22;39234;53.158;6.322;2022-07-11T15:36:16;19.90;99.90
53152;DHT22;39234;53.158;6.322;2022-07-11T15:38:42;19.70;99.90
53152;DHT22;39234;53.158;6.322;2022-07-11T15:41:16;21.70;99.90
53152;DHT22;39234;53.158;6.322;2022-07-11T15:43:42;19.80;99.90
53152;DHT22;39234;53.158;6.322;2022-07-11T15:46:08;19.60;99.90
53152;DHT22;39234;53.158;6.322;2022-07-11T15:48:34;19.60;99.90
53152;DHT22;39234;53.158;6.322;2022-07-11T15:51:01;19.60;99.90
53152;DHT22;39234;53.158;6.322;2022-07-11T15:53:28;19.30;99.90
53152;DHT22;39234;53.158;6.322;2022-07-11T15:55:54;21.30;99.90
53152;DHT22;39234;53.158;6.322;2022-07-11T15:58:22;19.20;99.90
53152;DHT22;39234;53.158;6.322;2022-07-11T16:00:52;19.30;99.90
53152;DHT22;39234;53.158;6.322;2022-07-11T16:03:18;21.30;99.90
53152;DHT22;39234;53.158;6.322;2022-07-11T16:05:46;19.40;99.90
53152;DHT22;39234;53.158;6.322;2022-07-11T16:08:12;19.40;99.90
53152;DHT22;39234;53.158;6.322;2022-07-11T16:10:39;19.30;99.90